Terminal Aerodrome Forecast
Issued by NWS Jackson, MS

Home | Current Version | Previous Version | Text Only | Print | Product List | Glossary On
Versions: 1 2 3 4 5 6 7 8 9 10 11 12 13 14
000
FTUS44 KJAN 180500
TAFGWO
TAF
KGWO 180520Z 1806/1906 05005KT P6SM SCT050 BKN100
     FM181100 06004KT 6SM -RA BR BKN050 OVC070
     FM181500 04004KT P6SM SCT050=

USA.gov is the U.S. government's official web portal to all federal, state and local government web resources and services.